Time;durP1;ratioP1;P1;durP2;ratioP2;P2;SDS_P1;SDS_P2;PMS_P1;PMS_P2;Temp;Humidity;BMP_temperature;BMP_pressure;BME280_temperature;BME280_humidity;BME280_pressure;Samples;Min_cycle;Max_cycle;Signal;HPM_P1;HPM_P2
2022/09/10 00:01:33;;;;;;;0.60;0.60;;;;;;;;;;1889343;75;26309;-46
2022/09/10 00:04:01;;;;;;;0.70;0.70;;;;;;;;;;1902813;75;26309;-44
2022/09/10 00:06:29;;;;;;;0.53;0.53;;;;;;;;;;1902384;75;26208;-42
2022/09/10 00:08:57;;;;;;;0.60;0.60;;;;;;;;;;1898221;75;26741;-42
2022/09/10 00:11:25;;;;;;;0.60;0.60;;;;;;;;;;1879266;75;26251;-45
2022/09/10 00:13:52;;;;;;;0.68;0.68;;;;;;;;;;1907401;75;26704;-47
2022/09/10 00:16:20;;;;;;;0.60;0.60;;;;;;;;;;1898364;75;26223;-48
2022/09/10 00:18:48;;;;;;;0.70;0.70;;;;;;;;;;1890522;75;26347;-42
2022/09/10 00:21:17;;;;;;;0.57;0.57;;;;;;;;;;1892806;75;26691;-44
2022/09/10 00:23:44;;;;;;;0.70;0.70;;;;;;;;;;1893318;75;26760;-44
2022/09/10 00:26:20;;;;;;;0.57;0.57;;;;;;;;;;1884354;75;26298;-48
2022/09/10 00:28:49;;;;;;;0.50;0.50;;;;;;;;;;1904147;75;26340;-45
2022/09/10 00:31:17;;;;;;;0.50;0.50;;;;;;;;;;1889681;75;26726;-42
2022/09/10 00:33:44;;;;;;;0.60;0.60;;;;;;;;;;1891006;75;26306;-48
2022/09/10 00:36:22;;;;;;;0.53;0.53;;;;;;;;;;1873855;75;26275;-42
2022/09/10 00:38:50;;;;;;;0.60;0.60;;;;;;;;;;1871786;75;26262;-43
2022/09/10 00:41:19;;;;;;;0.60;0.60;;;;;;;;;;1868311;75;26757;-42
2022/09/10 00:43:57;;;;;;;0.53;0.53;;;;;;;;;;1873251;75;26234;-46
2022/09/10 00:46:42;;;;;;;0.60;0.60;;;;;;;;;;1877596;75;26306;-45
2022/09/10 00:49:11;;;;;;;0.50;0.50;;;;;;;;;;1883099;75;26396;-44
2022/09/10 00:51:39;;;;;;;0.60;0.60;;;;;;;;;;1875755;75;26250;-44
2022/09/10 00:54:07;;;;;;;0.60;0.60;;;;;;;;;;1885907;75;26255;-43
2022/09/10 00:56:34;;;;;;;0.53;0.53;;;;;;;;;;1882348;75;26240;-45
2022/09/10 00:59:03;;;;;;;0.60;0.60;;;;;;;;;;1873560;75;27249;-46
2022/09/10 01:01:32;;;;;;;0.40;0.40;;;;;;;;;;1879209;75;26289;-42
2022/09/10 01:04:00;;;;;;;0.50;0.50;;;;;;;;;;1887840;75;26199;-42
2022/09/10 01:06:28;;;;;;;0.50;0.50;;;;;;;;;;1902288;75;26636;-43
2022/09/10 01:08:56;;;;;;;0.60;0.60;;;;;;;;;;1894715;75;26711;-47
2022/09/10 01:11:27;;;;;;;0.50;0.50;;;;;;;;;;1896252;75;26239;-42
2022/09/10 01:13:57;;;;;;;0.47;0.47;;;;;;;;;;1889598;75;26331;-49
2022/09/10 01:16:29;;;;;;;0.55;0.55;;;;;;;;;;1902001;75;26199;-43
2022/09/10 01:18:58;;;;;;;0.60;0.60;;;;;;;;;;1888031;75;26187;-44
2022/09/10 01:21:30;;;;;;;0.55;0.55;;;;;;;;;;1883150;73;26274;-49
2022/09/10 01:24:04;;;;;;;0.50;0.50;;;;;;;;;;1904835;75;26845;-44
2022/09/10 01:26:33;;;;;;;0.40;0.40;;;;;;;;;;1883832;75;26258;-48
2022/09/10 01:29:14;;;;;;;0.60;0.60;;;;;;;;;;1906885;75;26292;-46
2022/09/10 01:31:55;;;;;;;0.50;0.50;;;;;;;;;;1899080;74;26301;-45
2022/09/10 01:34:30;;;;;;;0.50;0.50;;;;;;;;;;1899370;75;26336;-44
2022/09/10 01:36:59;;;;;;;0.60;0.60;;;;;;;;;;1861709;75;26782;-45
2022/09/10 01:39:26;;;;;;;0.53;0.53;;;;;;;;;;1869678;75;26860;-45
2022/09/10 01:41:54;;;;;;;0.55;0.55;;;;;;;;;;1903501;75;26225;-42
2022/09/10 01:44:40;;;;;;;0.50;0.50;;;;;;;;;;1886707;75;26278;-46
2022/09/10 01:47:13;;;;;;;0.60;0.60;;;;;;;;;;1883911;75;26242;-45
2022/09/10 01:49:48;;;;;;;0.60;0.60;;;;;;;;;;1883649;75;26354;-43
2022/09/10 01:52:24;;;;;;;0.50;0.50;;;;;;;;;;1896571;75;27435;-47
2022/09/10 01:54:50;;;;;;;0.50;0.50;;;;;;;;;;1881827;73;26403;-43
2022/09/10 01:57:19;;;;;;;0.47;0.47;;;;;;;;;;1890554;75;26279;-47
2022/09/10 01:59:54;;;;;;;0.60;0.60;;;;;;;;;;1894803;75;26796;-48
2022/09/10 02:02:25;;;;;;;0.60;0.60;;;;;;;;;;1887629;75;26176;-45
2022/09/10 02:04:53;;;;;;;0.55;0.55;;;;;;;;;;1885356;75;27100;-46
2022/09/10 02:07:22;;;;;;;0.60;0.60;;;;;;;;;;1896336;75;26250;-48
2022/09/10 02:09:50;;;;;;;0.50;0.50;;;;;;;;;;1878093;75;26258;-45
2022/09/10 02:12:19;;;;;;;0.90;0.70;;;;;;;;;;1889557;74;26303;-43
2022/09/10 02:14:50;;;;;;;0.50;0.50;;;;;;;;;;1886180;74;26356;-44
2022/09/10 02:17:19;;;;;;;0.57;0.57;;;;;;;;;;1885316;75;26708;-46
2022/09/10 02:19:47;;;;;;;0.50;0.50;;;;;;;;;;1896111;75;26275;-44
2022/09/10 02:22:14;;;;;;;0.55;0.55;;;;;;;;;;1887736;75;26243;-44
2022/09/10 02:24:43;;;;;;;0.50;0.50;;;;;;;;;;1896598;75;26292;-42
2022/09/10 02:27:13;;;;;;;0.57;0.57;;;;;;;;;;1877917;75;26247;-45
2022/09/10 02:29:41;;;;;;;0.40;0.40;;;;;;;;;;1888807;75;26746;-43
2022/09/10 02:32:08;;;;;;;0.50;0.50;;;;;;;;;;1888921;75;26301;-42
2022/09/10 02:34:36;;;;;;;0.50;0.50;;;;;;;;;;1897089;75;26184;-44
2022/09/10 02:37:03;;;;;;;0.53;0.53;;;;;;;;;;1876251;75;26279;-43
2022/09/10 02:39:31;;;;;;;0.50;0.50;;;;;;;;;;1905914;75;26251;-45
2022/09/10 02:41:58;;;;;;;0.50;0.50;;;;;;;;;;1887427;75;26753;-45
2022/09/10 02:44:27;;;;;;;0.60;0.60;;;;;;;;;;1898893;75;26254;-44
2022/09/10 02:46:55;;;;;;;0.45;0.45;;;;;;;;;;1892086;75;26721;-46
2022/09/10 02:49:22;;;;;;;0.40;0.40;;;;;;;;;;1899276;75;26320;-51
2022/09/10 02:51:50;;;;;;;0.50;0.50;;;;;;;;;;1899472;74;26281;-44
2022/09/10 02:54:22;;;;;;;0.75;0.50;;;;;;;;;;1902629;75;26247;-45
2022/09/10 02:56:52;;;;;;;0.50;0.50;;;;;;;;;;1901677;75;26284;-43
2022/09/10 02:59:17;;;;;;;0.50;0.50;;;;;;;;;;1877700;75;26369;-48
2022/09/10 03:01:44;;;;;;;0.57;0.57;;;;;;;;;;1896743;75;26261;-42
2022/09/10 03:04:11;;;;;;;0.65;0.65;;;;;;;;;;1892685;75;26928;-43
2022/09/10 03:06:39;;;;;;;0.50;0.50;;;;;;;;;;1894200;75;26699;-47
2022/09/10 03:09:07;;;;;;;0.53;0.50;;;;;;;;;;1906077;75;26258;-44
2022/09/10 03:11:37;;;;;;;0.50;0.50;;;;;;;;;;1907105;75;26276;-46
2022/09/10 03:14:03;;;;;;;0.50;0.50;;;;;;;;;;1901683;75;26388;-44
2022/09/10 03:16:30;;;;;;;0.60;0.60;;;;;;;;;;1892444;75;26234;-44
2022/09/10 03:18:58;;;;;;;0.50;0.50;;;;;;;;;;1896066;75;26738;-49
2022/09/10 03:21:25;;;;;;;0.60;0.60;;;;;;;;;;1896934;75;26292;-46
2022/09/10 03:23:54;;;;;;;0.40;0.40;;;;;;;;;;1894263;75;26230;-46
2022/09/10 03:26:24;;;;;;;0.50;0.50;;;;;;;;;;1889240;75;26247;-47
2022/09/10 03:28:51;;;;;;;0.50;0.50;;;;;;;;;;1887051;75;26236;-42
2022/09/10 03:31:19;;;;;;;0.60;0.60;;;;;;;;;;1890710;75;26765;-44
2022/09/10 03:33:46;;;;;;;0.45;0.45;;;;;;;;;;1903532;75;26239;-47
2022/09/10 03:36:13;;;;;;;0.60;0.60;;;;;;;;;;1891722;75;26243;-44
2022/09/10 03:38:41;;;;;;;0.50;0.50;;;;;;;;;;1890126;75;26325;-42
2022/09/10 03:41:08;;;;;;;0.50;0.50;;;;;;;;;;1896882;75;26305;-47
2022/09/10 03:43:35;;;;;;;0.40;0.40;;;;;;;;;;1890795;75;26232;-43
2022/09/10 03:46:03;;;;;;;0.50;0.50;;;;;;;;;;1885653;75;26235;-43
2022/09/10 03:48:30;;;;;;;0.75;0.50;;;;;;;;;;1894395;74;27297;-46
2022/09/10 03:50:58;;;;;;;0.50;0.50;;;;;;;;;;1902589;75;26311;-45
2022/09/10 03:53:25;;;;;;;0.60;0.60;;;;;;;;;;1906652;75;26251;-47
2022/09/10 03:55:55;;;;;;;0.50;0.50;;;;;;;;;;1902924;75;26266;-42
2022/09/10 03:58:21;;;;;;;0.50;0.50;;;;;;;;;;1891583;75;26250;-44
2022/09/10 04:00:49;;;;;;;0.60;0.60;;;;;;;;;;1901788;75;26251;-44
2022/09/10 04:03:16;;;;;;;0.90;0.55;;;;;;;;;;1889215;75;26244;-47
2022/09/10 04:05:43;;;;;;;0.95;0.60;;;;;;;;;;1897876;75;26227;-44
2022/09/10 04:08:11;;;;;;;0.95;0.40;;;;;;;;;;1902991;75;26274;-42
2022/09/10 04:10:39;;;;;;;0.50;0.50;;;;;;;;;;1903051;75;26314;-46
2022/09/10 04:13:07;;;;;;;0.40;0.40;;;;;;;;;;1897287;75;26238;-44
2022/09/10 04:15:34;;;;;;;0.60;0.60;;;;;;;;;;1900844;75;27296;-46
2022/09/10 04:18:01;;;;;;;0.65;0.50;;;;;;;;;;1902998;74;26691;-46
2022/09/10 04:20:28;;;;;;;0.50;0.50;;;;;;;;;;1898154;75;26772;-43
2022/09/10 04:22:56;;;;;;;0.50;0.50;;;;;;;;;;1901057;75;26691;-44
2022/09/10 04:25:23;;;;;;;0.50;0.50;;;;;;;;;;1883154;75;27483;-44
2022/09/10 04:27:50;;;;;;;0.40;0.40;;;;;;;;;;1894532;75;26258;-44
2022/09/10 04:30:18;;;;;;;0.42;0.42;;;;;;;;;;1897445;75;26722;-47
2022/09/10 04:32:45;;;;;;;0.50;0.50;;;;;;;;;;1900073;75;26263;-44
2022/09/10 04:35:17;;;;;;;0.42;0.42;;;;;;;;;;1898622;75;26730;-45
2022/09/10 04:37:42;;;;;;;0.50;0.50;;;;;;;;;;1898691;75;27461;-45
2022/09/10 04:40:10;;;;;;;0.60;0.60;;;;;;;;;;1895094;75;26297;-45
2022/09/10 04:42:37;;;;;;;0.50;0.50;;;;;;;;;;1902899;75;26741;-42
2022/09/10 04:45:05;;;;;;;0.50;0.50;;;;;;;;;;1891773;75;26265;-42
2022/09/10 04:47:33;;;;;;;0.50;0.50;;;;;;;;;;1900096;75;27397;-44
2022/09/10 04:50:01;;;;;;;0.50;0.50;;;;;;;;;;1901352;75;26321;-43
2022/09/10 04:52:29;;;;;;;0.50;0.50;;;;;;;;;;1892872;75;26251;-47
2022/09/10 04:54:56;;;;;;;0.50;0.50;;;;;;;;;;1901941;75;26707;-44
2022/09/10 04:57:24;;;;;;;0.50;0.50;;;;;;;;;;1892976;75;27463;-43
2022/09/10 04:59:52;;;;;;;0.50;0.50;;;;;;;;;;1898497;75;26239;-42
2022/09/10 05:02:20;;;;;;;0.50;0.50;;;;;;;;;;1894745;75;26317;-48
2022/09/10 05:04:47;;;;;;;0.50;0.50;;;;;;;;;;1894056;75;26324;-44
2022/09/10 05:07:14;;;;;;;0.40;0.40;;;;;;;;;;1895404;75;26312;-45
2022/09/10 05:09:42;;;;;;;0.45;0.45;;;;;;;;;;1897860;75;26750;-50
2022/09/10 05:12:09;;;;;;;0.60;0.60;;;;;;;;;;1900223;75;26308;-43
2022/09/10 05:14:36;;;;;;;0.60;0.60;;;;;;;;;;1907042;74;26172;-49
2022/09/10 05:17:04;;;;;;;0.47;0.47;;;;;;;;;;1896660;75;26357;-44
2022/09/10 05:19:31;;;;;;;0.40;0.40;;;;;;;;;;1884289;75;26264;-48
2022/09/10 05:21:58;;;;;;;0.60;0.60;;;;;;;;;;1883513;75;26321;-48
2022/09/10 05:24:26;;;;;;;0.45;0.45;;;;;;;;;;1893517;75;26226;-46
2022/09/10 05:26:53;;;;;;;0.65;0.60;;;;;;;;;;1880336;75;26308;-45
2022/09/10 05:29:20;;;;;;;0.50;0.50;;;;;;;;;;1903472;75;26247;-45
2022/09/10 05:31:48;;;;;;;1.10;0.60;;;;;;;;;;1887922;75;26317;-44
2022/09/10 05:34:15;;;;;;;0.50;0.50;;;;;;;;;;1903740;75;26255;-44
2022/09/10 05:36:42;;;;;;;0.50;0.50;;;;;;;;;;1894812;75;26235;-47
2022/09/10 05:39:10;;;;;;;0.47;0.47;;;;;;;;;;1878899;75;26733;-42
2022/09/10 05:41:37;;;;;;;0.40;0.40;;;;;;;;;;1875286;75;26836;-42
2022/09/10 05:44:04;;;;;;;0.60;0.60;;;;;;;;;;1875896;75;26235;-45
2022/09/10 05:46:32;;;;;;;0.50;0.50;;;;;;;;;;1887992;75;26259;-45
2022/09/10 05:48:59;;;;;;;0.50;0.50;;;;;;;;;;1890902;75;26227;-42
2022/09/10 05:51:28;;;;;;;0.50;0.50;;;;;;;;;;1874398;75;26266;-46
2022/09/10 05:53:56;;;;;;;0.40;0.40;;;;;;;;;;1895756;74;26731;-47
2022/09/10 05:56:28;;;;;;;0.50;0.50;;;;;;;;;;1899840;75;26364;-46
2022/09/10 05:58:53;;;;;;;0.40;0.40;;;;;;;;;;1883035;75;26762;-46
2022/09/10 06:01:20;;;;;;;0.40;0.40;;;;;;;;;;1895270;75;26298;-45
2022/09/10 06:03:49;;;;;;;0.50;0.50;;;;;;;;;;1890302;75;26251;-45
2022/09/10 06:06:18;;;;;;;0.60;0.60;;;;;;;;;;1897412;75;26310;-51
2022/09/10 06:08:47;;;;;;;0.50;0.50;;;;;;;;;;1892842;75;26325;-45
2022/09/10 06:11:14;;;;;;;0.55;0.55;;;;;;;;;;1901535;75;26266;-42
2022/09/10 06:13:41;;;;;;;0.50;0.50;;;;;;;;;;1894795;75;26271;-44
2022/09/10 06:16:09;;;;;;;0.70;0.62;;;;;;;;;;1888510;75;26313;-46
2022/09/10 06:18:37;;;;;;;0.60;0.60;;;;;;;;;;1890920;75;26722;-43
2022/09/10 06:21:09;;;;;;;0.60;0.60;;;;;;;;;;1893455;75;26263;-43
2022/09/10 06:23:36;;;;;;;0.60;0.60;;;;;;;;;;1898801;75;26297;-43
2022/09/10 06:26:05;;;;;;;0.60;0.60;;;;;;;;;;1898637;75;26365;-47
2022/09/10 06:28:33;;;;;;;0.50;0.50;;;;;;;;;;1899962;75;26254;-45
2022/09/10 06:31:06;;;;;;;0.40;0.40;;;;;;;;;;1902387;75;26373;-45
2022/09/10 06:33:30;;;;;;;1.55;0.60;;;;;;;;;;1899208;75;26302;-42
2022/09/10 06:35:59;;;;;;;0.50;0.50;;;;;;;;;;1893277;75;26243;-46
2022/09/10 06:38:31;;;;;;;0.50;0.50;;;;;;;;;;1893671;75;26364;-46
2022/09/10 06:40:59;;;;;;;0.80;0.60;;;;;;;;;;1892341;74;26312;-48
2022/09/10 06:43:27;;;;;;;0.70;0.53;;;;;;;;;;1899906;75;26572;-43
2022/09/10 06:45:54;;;;;;;3.10;0.68;;;;;;;;;;1900506;75;26223;-43
2022/09/10 06:48:26;;;;;;;16.35;1.00;;;;;;;;;;1899347;75;26231;-46
2022/09/10 06:50:53;;;;;;;3.45;0.60;;;;;;;;;;1898494;75;26317;-45
2022/09/10 06:53:21;;;;;;;4.00;0.65;;;;;;;;;;1892176;75;26717;-49
2022/09/10 06:55:49;;;;;;;1.45;0.70;;;;;;;;;;1901069;75;26304;-43
2022/09/10 06:58:17;;;;;;;1.07;0.60;;;;;;;;;;1898075;74;26255;-45
2022/09/10 07:00:45;;;;;;;2.83;0.60;;;;;;;;;;1892898;75;26833;-46
2022/09/10 07:03:12;;;;;;;2.35;0.60;;;;;;;;;;1901519;75;26251;-45
2022/09/10 07:05:39;;;;;;;3.33;0.68;;;;;;;;;;1896932;75;26344;-44
2022/09/10 07:08:07;;;;;;;1.55;0.60;;;;;;;;;;1889006;75;26587;-42
2022/09/10 07:10:36;;;;;;;0.88;0.50;;;;;;;;;;1906598;75;26242;-42
2022/09/10 07:13:03;;;;;;;2.85;0.60;;;;;;;;;;1902312;75;26372;-45
2022/09/10 07:15:30;;;;;;;0.98;0.70;;;;;;;;;;1885051;75;26247;-44
2022/09/10 07:17:57;;;;;;;0.90;0.90;;;;;;;;;;1900680;75;26219;-44
2022/09/10 07:20:28;;;;;;;0.78;0.78;;;;;;;;;;1893266;75;26298;-45
2022/09/10 07:22:55;;;;;;;3.83;1.05;;;;;;;;;;1897287;75;26373;-44
2022/09/10 07:25:23;;;;;;;1.45;0.90;;;;;;;;;;1885925;75;26226;-46
2022/09/10 07:27:51;;;;;;;2.02;1.02;;;;;;;;;;1908061;75;27385;-43
2022/09/10 07:30:21;;;;;;;0.85;0.80;;;;;;;;;;1887212;75;26343;-43
2022/09/10 07:32:48;;;;;;;3.02;0.90;;;;;;;;;;1890093;75;26385;-46
2022/09/10 07:35:16;;;;;;;2.75;0.93;;;;;;;;;;1894609;75;26254;-43
2022/09/10 07:37:44;;;;;;;3.92;1.07;;;;;;;;;;1888205;75;26722;-45
2022/09/10 07:40:11;;;;;;;3.58;0.93;;;;;;;;;;1875528;75;26263;-46
2022/09/10 07:42:39;;;;;;;2.90;1.00;;;;;;;;;;1862582;76;25904;-44
2022/09/10 07:45:06;;;;;;;3.35;0.85;;;;;;;;;;1878701;76;26687;-45
2022/09/10 07:47:34;;;;;;;2.05;0.90;;;;;;;;;;1882399;76;26239;-43
2022/09/10 07:50:01;;;;;;;1.32;0.80;;;;;;;;;;1858464;76;26552;-44
2022/09/10 07:52:28;;;;;;;4.03;0.95;;;;;;;;;;1858555;76;26202;-48
2022/09/10 07:54:55;;;;;;;0.90;0.90;;;;;;;;;;1878987;76;26263;-44
2022/09/10 07:57:23;;;;;;;2.65;1.00;;;;;;;;;;1874236;76;26227;-44
2022/09/10 07:59:50;;;;;;;3.85;1.10;;;;;;;;;;1865015;76;26235;-43
2022/09/10 08:02:17;;;;;;;1.65;1.00;;;;;;;;;;1882277;76;26389;-46
2022/09/10 08:04:45;;;;;;;1.47;0.80;;;;;;;;;;1875368;76;26345;-44
2022/09/10 08:07:16;;;;;;;3.40;0.95;;;;;;;;;;1870762;75;26267;-45
2022/09/10 08:09:42;;;;;;;0.98;0.93;;;;;;;;;;1861059;76;26517;-42
2022/09/10 08:12:09;;;;;;;2.85;1.07;;;;;;;;;;1878109;76;26337;-42
2022/09/10 08:14:36;;;;;;;1.45;0.93;;;;;;;;;;1882763;76;26816;-48
2022/09/10 08:17:04;;;;;;;0.95;0.90;;;;;;;;;;1872287;76;26188;-46
2022/09/10 08:19:32;;;;;;;1.55;0.90;;;;;;;;;;1879849;76;27233;-43
2022/09/10 08:22:02;;;;;;;0.90;0.85;;;;;;;;;;1866446;76;27438;-43
2022/09/10 08:24:30;;;;;;;0.80;0.80;;;;;;;;;;1873515;76;26247;-44
2022/09/10 08:26:57;;;;;;;3.12;0.90;;;;;;;;;;1878617;76;26212;-47
2022/09/10 08:29:24;;;;;;;0.90;0.80;;;;;;;;;;1881585;76;26235;-41
2022/09/10 08:31:52;;;;;;;2.33;0.90;;;;;;;;;;1869702;75;26269;-45
2022/09/10 08:34:19;;;;;;;0.90;0.90;;;;;;;;;;1871096;76;26313;-48
2022/09/10 08:36:47;;;;;;;2.95;0.85;;;;;;;;;;1860354;76;26223;-45
2022/09/10 08:39:14;;;;;;;0.70;0.70;;;;;;;;;;1883981;75;26313;-42
2022/09/10 08:41:43;;;;;;;0.88;0.80;;;;;;;;;;1905265;75;26242;-43
2022/09/10 08:44:12;;;;;;;0.60;0.60;;;;;;;;;;1887340;75;26266;-42
2022/09/10 08:46:43;;;;;;;1.67;0.90;;;;;;;;;;1885298;75;26270;-43
2022/09/10 08:49:15;;;;;;;0.90;0.90;;;;;;;;;;1886518;75;26352;-43
2022/09/10 08:51:56;;;;;;;1.75;1.00;;;;;;;;;;1892955;75;26265;-45
2022/09/10 08:54:25;;;;;;;2.27;0.90;;;;;;;;;;1877859;75;26750;-43
2022/09/10 08:56:54;;;;;;;0.70;0.70;;;;;;;;;;1879345;75;26260;-44
2022/09/10 08:59:32;;;;;;;1.60;0.72;;;;;;;;;;1880170;75;26334;-45
2022/09/10 09:02:13;;;;;;;3.45;0.90;;;;;;;;;;1881652;75;26255;-42
2022/09/10 09:04:42;;;;;;;0.90;0.90;;;;;;;;;;1870765;75;26320;-43
2022/09/10 09:07:18;;;;;;;0.70;0.70;;;;;;;;;;1899611;75;26301;-43
2022/09/10 09:09:46;;;;;;;0.80;0.80;;;;;;;;;;1887943;75;26299;-42
2022/09/10 09:12:31;;;;;;;1.12;0.95;;;;;;;;;;1874164;75;26316;-42
2022/09/10 09:15:00;;;;;;;0.60;0.60;;;;;;;;;;1904413;75;26370;-43
2022/09/10 09:17:32;;;;;;;0.62;0.62;;;;;;;;;;1896504;75;26353;-43
2022/09/10 09:20:04;;;;;;;0.70;0.70;;;;;;;;;;1891131;75;26738;-42
2022/09/10 09:22:33;;;;;;;0.85;0.85;;;;;;;;;;1899366;74;26243;-43
2022/09/10 09:25:02;;;;;;;0.65;0.65;;;;;;;;;;1894268;75;26243;-46
2022/09/10 09:27:31;;;;;;;0.80;0.80;;;;;;;;;;1896785;75;26240;-45
2022/09/10 09:30:06;;;;;;;1.22;0.70;;;;;;;;;;1897988;75;26184;-45
2022/09/10 09:32:35;;;;;;;0.65;0.62;;;;;;;;;;1886822;75;27555;-42
2022/09/10 09:35:06;;;;;;;1.75;1.00;;;;;;;;;;1901045;74;26530;-47
2022/09/10 09:37:35;;;;;;;2.52;1.00;;;;;;;;;;1894359;75;26675;-43
2022/09/10 09:40:20;;;;;;;1.82;1.07;;;;;;;;;;1899362;75;26835;-45
2022/09/10 09:42:49;;;;;;;1.82;0.95;;;;;;;;;;1890503;75;26754;-49
2022/09/10 09:45:22;;;;;;;4.42;0.82;;;;;;;;;;1896974;75;27441;-50
2022/09/10 09:47:49;;;;;;;2.65;0.95;;;;;;;;;;1894255;75;26305;-49
2022/09/10 09:50:20;;;;;;;2.27;0.78;;;;;;;;;;1891882;75;26262;-49
2022/09/10 09:52:47;;;;;;;0.90;0.90;;;;;;;;;;1898202;75;26807;-44
2022/09/10 09:55:16;;;;;;;1.00;0.80;;;;;;;;;;1904177;75;26258;-41
2022/09/10 09:57:43;;;;;;;0.98;0.95;;;;;;;;;;1899680;74;26251;-41
2022/09/10 10:00:13;;;;;;;2.30;0.72;;;;;;;;;;1882645;75;27437;-45
2022/09/10 10:02:40;;;;;;;4.65;1.12;;;;;;;;;;1886788;75;26320;-45
2022/09/10 10:05:09;;;;;;;1.55;0.90;;;;;;;;;;1884782;75;26270;-47
2022/09/10 10:07:36;;;;;;;0.98;0.80;;;;;;;;;;1902518;75;26313;-47
2022/09/10 10:10:06;;;;;;;1.27;0.90;;;;;;;;;;1902522;75;26940;-45
2022/09/10 10:12:34;;;;;;;1.27;0.82;;;;;;;;;;1881109;75;26302;-48
2022/09/10 10:15:02;;;;;;;0.90;0.90;;;;;;;;;;1905392;75;26632;-45
2022/09/10 10:17:34;;;;;;;0.80;0.80;;;;;;;;;;1892179;75;26215;-48
2022/09/10 10:20:04;;;;;;;0.88;0.88;;;;;;;;;;1895825;75;26667;-49
2022/09/10 10:22:31;;;;;;;1.57;0.72;;;;;;;;;;1894700;74;26239;-46
2022/09/10 10:25:00;;;;;;;0.82;0.82;;;;;;;;;;1893849;75;26361;-50
2022/09/10 10:27:31;;;;;;;3.25;0.90;;;;;;;;;;1890954;75;26319;-46
2022/09/10 10:30:09;;;;;;;0.88;0.85;;;;;;;;;;1900426;75;26787;-46
2022/09/10 10:32:57;;;;;;;0.80;0.80;;;;;;;;;;1882120;75;26744;-49
2022/09/10 10:35:44;;;;;;;1.80;0.82;;;;;;;;;;1899471;74;26250;-43
2022/09/10 10:38:31;;;;;;;0.90;0.90;;;;;;;;;;1895495;75;26255;-46
2022/09/10 10:41:10;;;;;;;0.90;0.90;;;;;;;;;;1901479;75;26275;-47
2022/09/10 10:43:51;;;;;;;0.85;0.85;;;;;;;;;;1899609;75;26262;-47
2022/09/10 10:46:23;;;;;;;0.90;0.90;;;;;;;;;;1895920;75;26695;-43
2022/09/10 10:49:07;;;;;;;1.65;0.90;;;;;;;;;;1886895;75;26527;-41
2022/09/10 10:51:41;;;;;;;1.85;0.88;;;;;;;;;;1896405;75;26258;-44
2022/09/10 10:54:17;;;;;;;1.12;1.12;;;;;;;;;;1866885;75;26189;-47
2022/09/10 10:56:46;;;;;;;1.47;1.00;;;;;;;;;;1888933;75;26534;-44
2022/09/10 10:59:15;;;;;;;1.95;1.10;;;;;;;;;;1888291;74;26311;-46
2022/09/10 11:01:44;;;;;;;1.32;1.25;;;;;;;;;;1894631;75;26231;-40
2022/09/10 11:04:30;;;;;;;1.02;1.02;;;;;;;;;;1889193;75;26966;-43
2022/09/10 11:06:59;;;;;;;0.95;0.95;;;;;;;;;;1880492;75;26786;-42
2022/09/10 11:09:27;;;;;;;1.10;1.10;;;;;;;;;;1900920;75;26253;-46
2022/09/10 11:12:10;;;;;;;2.12;1.00;;;;;;;;;;1900230;75;26274;-46
2022/09/10 11:14:57;;;;;;;1.25;1.15;;;;;;;;;;1898429;75;26838;-48
2022/09/10 11:17:26;;;;;;;3.50;1.10;;;;;;;;;;1879616;75;26297;-43
2022/09/10 11:19:55;;;;;;;1.40;1.05;;;;;;;;;;1884616;75;26307;-48
2022/09/10 11:22:24;;;;;;;1.20;1.20;;;;;;;;;;1898274;74;26266;-48
2022/09/10 11:24:52;;;;;;;1.35;1.17;;;;;;;;;;1900273;75;26606;-46
2022/09/10 11:27:21;;;;;;;1.20;1.20;;;;;;;;;;1897323;75;26251;-42
2022/09/10 11:29:50;;;;;;;1.25;1.05;;;;;;;;;;1873252;75;26295;-43
2022/09/10 11:32:19;;;;;;;1.22;1.10;;;;;;;;;;1897401;75;26298;-44
2022/09/10 11:34:51;;;;;;;0.95;0.90;;;;;;;;;;1869459;75;26327;-44
2022/09/10 11:37:35;;;;;;;0.90;0.90;;;;;;;;;;1895375;75;26765;-46
2022/09/10 11:40:04;;;;;;;2.70;1.02;;;;;;;;;;1874844;75;26690;-43
2022/09/10 11:42:36;;;;;;;0.90;0.90;;;;;;;;;;1889366;75;26834;-41
2022/09/10 11:45:08;;;;;;;1.00;0.90;;;;;;;;;;1881152;75;26636;-47
2022/09/10 11:47:36;;;;;;;1.07;1.00;;;;;;;;;;1892992;75;26296;-41
2022/09/10 11:50:09;;;;;;;1.10;1.10;;;;;;;;;;1871566;75;26356;-47
2022/09/10 11:52:37;;;;;;;0.90;0.90;;;;;;;;;;1876524;75;26854;-42
2022/09/10 11:55:07;;;;;;;0.80;0.80;;;;;;;;;;1875960;75;26325;-46
2022/09/10 11:57:38;;;;;;;1.15;1.05;;;;;;;;;;1880543;75;26334;-44
2022/09/10 12:00:17;;;;;;;0.93;0.90;;;;;;;;;;1874863;75;26684;-46
2022/09/10 12:03:01;;;;;;;1.10;1.00;;;;;;;;;;1887043;75;26259;-51
2022/09/10 12:05:45;;;;;;;1.15;1.10;;;;;;;;;;1887531;75;26321;-57
2022/09/10 12:08:20;;;;;;;1.15;1.00;;;;;;;;;;1881045;75;26281;-51
2022/09/10 12:10:50;;;;;;;1.00;1.00;;;;;;;;;;1877567;75;26259;-46
2022/09/10 12:13:18;;;;;;;2.52;1.10;;;;;;;;;;1891007;75;26649;-48
2022/09/10 12:15:49;;;;;;;0.90;0.90;;;;;;;;;;1888538;75;26247;-49
2022/09/10 12:18:18;;;;;;;1.00;0.90;;;;;;;;;;1879192;75;26255;-49
2022/09/10 12:20:50;;;;;;;2.47;0.80;;;;;;;;;;1882565;75;26235;-49
2022/09/10 12:23:19;;;;;;;2.25;1.10;;;;;;;;;;1888559;75;26227;-50
2022/09/10 12:25:48;;;;;;;0.95;0.93;;;;;;;;;;1884719;75;26674;-45
2022/09/10 12:28:33;;;;;;;2.75;1.00;;;;;;;;;;1888822;75;26306;-44
2022/09/10 12:31:01;;;;;;;1.77;0.90;;;;;;;;;;1880901;75;26298;-45
2022/09/10 12:33:30;;;;;;;0.90;0.90;;;;;;;;;;1894064;75;26282;-52
2022/09/10 12:35:57;;;;;;;1.17;1.07;;;;;;;;;;1880863;75;26308;-48
2022/09/10 12:38:43;;;;;;;4.87;1.00;;;;;;;;;;1895923;75;26329;-48
2022/09/10 12:41:15;;;;;;;1.30;1.10;;;;;;;;;;1895273;75;27504;-47
2022/09/10 12:43:44;;;;;;;1.77;1.00;;;;;;;;;;1900903;74;27345;-45
2022/09/10 12:46:12;;;;;;;1.00;1.00;;;;;;;;;;1894223;75;26743;-48
2022/09/10 12:48:47;;;;;;;1.75;0.90;;;;;;;;;;1882860;75;26774;-52
2022/09/10 12:51:19;;;;;;;3.42;1.10;;;;;;;;;;1895777;75;26348;-50
2022/09/10 12:54:00;;;;;;;0.95;0.95;;;;;;;;;;1893084;74;26729;-48
2022/09/10 12:56:36;;;;;;;1.00;1.00;;;;;;;;;;1881216;75;25650;-46
2022/09/10 12:59:05;;;;;;;1.12;1.00;;;;;;;;;;1900437;75;26754;-46
2022/09/10 13:01:45;;;;;;;2.20;1.00;;;;;;;;;;1888520;74;26255;-49
2022/09/10 13:04:13;;;;;;;1.00;0.90;;;;;;;;;;1898753;75;26607;-46
2022/09/10 13:06:42;;;;;;;2.58;0.82;;;;;;;;;;1899940;75;26250;-47
2022/09/10 13:09:17;;;;;;;1.67;1.10;;;;;;;;;;1901911;75;26904;-50
2022/09/10 13:11:46;;;;;;;1.02;0.90;;;;;;;;;;1900080;75;26298;-49
2022/09/10 13:14:14;;;;;;;0.90;0.90;;;;;;;;;;1889949;75;26364;-49
2022/09/10 13:16:42;;;;;;;0.80;0.80;;;;;;;;;;1889302;75;26325;-44
2022/09/10 13:19:16;;;;;;;0.93;0.90;;;;;;;;;;1900639;75;27882;-50
2022/09/10 13:21:45;;;;;;;1.67;1.00;;;;;;;;;;1888406;75;26717;-47
2022/09/10 13:24:31;;;;;;;1.22;0.80;;;;;;;;;;1896361;75;26251;-47
2022/09/10 13:27:05;;;;;;;1.00;1.00;;;;;;;;;;1873320;75;26258;-47
2022/09/10 13:29:34;;;;;;;2.22;1.00;;;;;;;;;;1884199;75;26516;-45
2022/09/10 13:32:02;;;;;;;0.90;0.90;;;;;;;;;;1878323;75;26328;-49
2022/09/10 13:34:34;;;;;;;1.20;1.10;;;;;;;;;;1902439;75;26312;-48
2022/09/10 13:37:06;;;;;;;1.17;0.90;;;;;;;;;;1883672;75;26271;-50
2022/09/10 13:39:44;;;;;;;0.90;0.90;;;;;;;;;;1895071;75;26188;-46
2022/09/10 13:42:28;;;;;;;1.30;0.90;;;;;;;;;;1891665;75;26291;-44
2022/09/10 13:45:00;;;;;;;1.07;0.98;;;;;;;;;;1790871;78;26292;-47
2022/09/10 13:47:47;;;;;;;0.80;0.80;;;;;;;;;;1861095;75;26734;-46
2022/09/10 13:50:20;;;;;;;0.93;0.88;;;;;;;;;;1870932;75;26253;-47
2022/09/10 13:52:49;;;;;;;2.65;0.90;;;;;;;;;;1886903;75;26271;-51
2022/09/10 13:55:25;;;;;;;0.95;0.95;;;;;;;;;;1889965;75;26778;-53
2022/09/10 13:57:54;;;;;;;1.55;0.90;;;;;;;;;;1890756;75;26773;-47
2022/09/10 14:00:29;;;;;;;0.90;0.90;;;;;;;;;;1891069;75;26735;-46
2022/09/10 14:02:57;;;;;;;0.90;0.90;;;;;;;;;;1884252;75;26242;-53
2022/09/10 14:05:35;;;;;;;0.90;0.90;;;;;;;;;;1889118;75;26930;-48
2022/09/10 14:08:19;;;;;;;0.95;0.95;;;;;;;;;;1877095;75;26211;-50
2022/09/10 14:10:49;;;;;;;0.82;0.82;;;;;;;;;;1881624;75;26340;-46
2022/09/10 14:13:18;;;;;;;1.32;0.90;;;;;;;;;;1899820;75;26282;-52
2022/09/10 14:15:46;;;;;;;1.07;1.00;;;;;;;;;;1886792;75;26258;-49
2022/09/10 14:18:13;;;;;;;1.05;1.05;;;;;;;;;;1896918;75;26817;-45
2022/09/10 14:20:41;;;;;;;1.17;1.07;;;;;;;;;;1881011;75;26250;-45
2022/09/10 14:23:16;;;;;;;0.90;0.90;;;;;;;;;;1900936;75;26238;-49
2022/09/10 14:25:45;;;;;;;1.37;1.00;;;;;;;;;;1898800;75;26239;-47
2022/09/10 14:28:13;;;;;;;1.90;1.05;;;;;;;;;;1896873;75;26246;-49
2022/09/10 14:30:41;;;;;;;0.90;0.90;;;;;;;;;;1893549;75;26242;-48
2022/09/10 14:33:25;;;;;;;1.50;1.10;;;;;;;;;;1901103;75;26290;-49
2022/09/10 14:35:52;;;;;;;1.60;1.20;;;;;;;;;;1900710;74;26339;-47
2022/09/10 14:38:21;;;;;;;1.22;1.20;;;;;;;;;;1895359;75;26175;-52
2022/09/10 14:40:48;;;;;;;1.20;1.10;;;;;;;;;;1907764;75;26643;-46
2022/09/10 14:43:17;;;;;;;0.85;0.85;;;;;;;;;;1881140;75;26357;-47
2022/09/10 14:45:46;;;;;;;1.00;1.00;;;;;;;;;;1899527;75;26247;-46
2022/09/10 14:48:27;;;;;;;1.22;1.12;;;;;;;;;;1885879;75;26318;-49
2022/09/10 14:51:14;;;;;;;1.15;1.15;;;;;;;;;;1860981;75;26325;-47
2022/09/10 14:53:42;;;;;;;1.07;1.00;;;;;;;;;;1886161;75;26682;-45
2022/09/10 14:56:22;;;;;;;1.37;1.00;;;;;;;;;;1882318;75;26326;-52
2022/09/10 14:58:52;;;;;;;1.05;1.05;;;;;;;;;;1887644;75;26255;-45
2022/09/10 15:01:20;;;;;;;1.85;0.95;;;;;;;;;;1897689;75;26735;-50